Time;durP1;ratioP1;P1;durP2;ratioP2;P2;SDS_P1;SDS_P2;PMS_P1;PMS_P2;Temp;Humidity;BMP_temperature;BMP_pressure;BME280_temperature;BME280_humidity;BME280_pressure;Samples;Min_cycle;Max_cycle;Signal;HPM_P1;HPM_P2
2022/04/19 00:01:43;;;;;;;2.90;1.52;;;;;;;2.67;72.85;94966.28;5066710;28;20419;-71
2022/04/19 00:04:09;;;;;;;4.00;1.60;;;;;;;2.67;73.14;94961.00;5066942;28;20059;-70
2022/04/19 00:06:35;;;;;;;2.55;1.35;;;;;;;2.77;72.36;94964.50;5067120;28;20060;-71
2022/04/19 00:09:02;;;;;;;2.25;1.30;;;;;;;2.72;72.51;94954.28;5066145;28;20115;-71
2022/04/19 00:11:27;;;;;;;2.53;1.48;;;;;;;2.70;72.55;94956.28;5066957;28;20362;-71
2022/04/19 00:13:52;;;;;;;2.50;1.38;;;;;;;2.71;72.76;94949.13;5066632;28;20442;-73
2022/04/19 00:16:18;;;;;;;3.22;1.45;;;;;;;2.73;73.06;94947.19;5048851;28;20388;-70
2022/04/19 00:18:43;;;;;;;2.25;1.50;;;;;;;2.70;72.38;94943.03;5066432;28;20467;-71
2022/04/19 00:21:09;;;;;;;2.88;1.67;;;;;;;2.71;72.60;94944.69;5066718;28;20025;-71
2022/04/19 00:23:34;;;;;;;2.97;1.58;;;;;;;2.71;72.70;94942.03;5066558;28;20029;-73
2022/04/19 00:25:59;;;;;;;2.65;1.50;;;;;;;2.70;72.48;94937.72;5065983;28;20051;-72
2022/04/19 00:28:26;;;;;;;2.78;1.60;;;;;;;2.69;73.05;94937.88;5066779;28;20047;-71
2022/04/19 00:30:52;;;;;;;2.08;1.38;;;;;;;2.71;72.69;94942.03;5065998;28;20043;-70
2022/04/19 00:33:17;;;;;;;2.65;1.50;;;;;;;2.67;72.48;94939.81;5066467;28;20032;-71
2022/04/19 00:35:42;;;;;;;3.42;1.90;;;;;;;2.66;73.25;94938.16;5066101;28;20024;-70
2022/04/19 00:38:08;;;;;;;3.40;1.88;;;;;;;2.62;73.28;94927.00;5066309;28;20033;-71
2022/04/19 00:40:34;;;;;;;5.13;2.15;;;;;;;2.60;72.80;94926.28;5047980;28;20036;-71
2022/04/19 00:42:59;;;;;;;3.67;1.90;;;;;;;2.63;72.69;94938.44;5066282;28;20485;-72
2022/04/19 00:45:25;;;;;;;3.17;1.73;;;;;;;2.62;73.55;94926.16;5066127;28;20136;-72
2022/04/19 00:47:51;;;;;;;3.83;2.25;;;;;;;2.65;73.08;94931.16;5030463;28;20025;-70
2022/04/19 00:50:17;;;;;;;3.30;1.83;;;;;;;2.64;72.93;94930.34;5048314;28;20063;-72
2022/04/19 00:52:43;;;;;;;4.00;2.10;;;;;;;2.66;72.97;94922.28;5047906;28;20025;-73
2022/04/19 00:55:09;;;;;;;2.65;1.60;;;;;;;2.66;73.43;94922.28;5048380;28;20479;-72
2022/04/19 00:57:36;;;;;;;2.85;1.67;;;;;;;2.67;73.35;94924.78;5065729;28;20134;-71
2022/04/19 01:00:05;;;;;;;3.13;1.80;;;;;;;2.67;73.39;94922.13;5031840;28;20020;-74
2022/04/19 01:02:31;;;;;;;3.58;1.80;;;;;;;2.74;72.68;94919.72;5047950;28;20035;-73
2022/04/19 01:04:56;;;;;;;2.75;1.75;;;;;;;2.67;73.23;94918.63;5065615;28;20024;-72
2022/04/19 01:07:22;;;;;;;3.67;2.20;;;;;;;2.69;72.86;94916.69;5065986;28;20082;-71
2022/04/19 01:09:48;;;;;;;3.28;2.03;;;;;;;2.64;73.48;94914.47;5030785;28;20383;-70
2022/04/19 01:15:03;;;;;;;3.47;2.33;;;;;;;2.72;73.08;94905.81;5050208;28;20051;-71
2022/04/19 01:17:28;;;;;;;3.15;2.00;;;;;;;2.70;73.36;94918.34;5065587;28;20032;-71
2022/04/19 01:19:53;;;;;;;4.38;2.47;;;;;;;2.70;72.57;94911.25;5047683;28;20039;-71
2022/04/19 01:22:19;;;;;;;3.38;1.90;;;;;;;2.66;73.19;94911.69;5047136;28;20031;-72
2022/04/19 01:24:44;;;;;;;3.97;2.00;;;;;;;2.65;72.73;94915.28;5065532;28;20032;-71
2022/04/19 01:27:10;;;;;;;4.07;2.05;;;;;;;2.62;73.72;94915.56;5065062;28;20044;-72
2022/04/19 01:29:36;;;;;;;6.22;2.58;;;;;;;2.55;73.90;94912.63;5065250;28;20154;-71
2022/04/19 01:32:04;;;;;;;5.13;2.45;;;;;;;2.54;74.28;94913.63;5065007;28;20082;-70
2022/04/19 01:34:30;;;;;;;3.88;2.13;;;;;;;2.56;74.12;94914.31;5065264;28;20029;-72
2022/04/19 01:36:55;;;;;;;5.50;2.88;;;;;;;2.54;73.67;94905.69;5065002;28;20025;-71
2022/04/19 01:40:16;;;;;;;5.43;2.83;;;;;;;2.54;73.54;94908.31;5047001;28;20021;-71
2022/04/19 01:42:07;;;;;;;4.85;2.80;;;;;;;2.46;73.80;94911.69;5065407;28;20057;-69
2022/04/19 01:44:37;;;;;;;4.38;2.78;;;;;;;2.46;74.25;94907.22;5064454;28;20032;-72
2022/04/19 01:47:07;;;;;;;4.07;2.65;;;;;;;2.51;73.82;94913.91;5065351;28;20423;-71
2022/04/19 01:49:34;;;;;;;4.93;2.85;;;;;;;2.57;73.94;94910.69;5064365;28;20039;-71
2022/04/19 01:52:01;;;;;;;3.33;2.67;;;;;;;2.62;73.86;94913.75;5047205;28;20471;-72
2022/04/19 01:54:27;;;;;;;4.72;3.10;;;;;;;2.61;73.79;94912.09;5064876;28;20064;-71
2022/04/19 01:56:53;;;;;;;4.78;2.72;;;;;;;2.64;72.98;94905.69;5065280;28;20567;-72
2022/04/19 01:59:18;;;;;;;4.57;2.50;;;;;;;2.65;72.77;94916.13;5065151;28;20025;-71
2022/04/19 02:01:44;;;;;;;4.82;2.92;;;;;;;2.66;73.13;94909.84;5064437;28;20093;-71
2022/04/19 02:04:09;;;;;;;7.28;2.95;;;;;;;2.65;73.36;94915.28;5065275;28;20024;-71
2022/04/19 02:06:35;;;;;;;5.38;3.08;;;;;;;2.69;72.82;94901.63;5064287;28;20025;-71
2022/04/19 02:09:03;;;;;;;4.43;2.67;;;;;;;2.66;73.53;94907.19;5064894;28;20036;-72
2022/04/19 02:11:28;;;;;;;4.60;2.80;;;;;;;2.65;72.75;94905.53;5046699;28;20052;-71
2022/04/19 02:13:54;;;;;;;5.35;2.80;;;;;;;2.60;73.59;94915.69;5046771;28;20426;-68
2022/04/19 02:16:21;;;;;;;3.83;2.80;;;;;;;2.59;73.43;94912.25;5047045;28;20017;-71
2022/04/19 02:18:48;;;;;;;4.20;2.63;;;;;;;2.59;73.83;94916.69;5046466;28;20473;-72
2022/04/19 02:21:13;;;;;;;4.00;2.75;;;;;;;2.58;74.04;94907.91;5047234;28;20099;-71
2022/04/19 02:23:39;;;;;;;4.95;2.70;;;;;;;2.56;74.00;94916.97;5064190;28;20387;-71
2022/04/19 02:26:04;;;;;;;5.03;2.95;;;;;;;2.58;73.61;94907.91;5064780;28;20040;-72
2022/04/19 02:28:31;;;;;;;5.35;3.05;;;;;;;2.55;73.86;94909.97;5046382;28;20028;-70
2022/04/19 02:30:57;;;;;;;4.28;2.70;;;;;;;2.61;73.20;94904.16;5047194;28;20063;-72
2022/04/19 02:33:23;;;;;;;4.72;3.08;;;;;;;2.61;73.81;94908.59;5030286;28;20021;-71
2022/04/19 02:35:48;;;;;;;4.80;3.25;;;;;;;2.58;74.00;94905.25;5064067;28;20033;-69
2022/04/19 02:38:14;;;;;;;5.32;3.03;;;;;;;2.57;74.08;94903.59;5064842;28;20030;-72
2022/04/19 02:40:39;;;;;;;6.13;3.17;;;;;;;2.58;73.24;94913.19;5063949;28;20025;-71
2022/04/19 02:43:05;;;;;;;4.63;2.88;;;;;;;2.60;74.04;94907.75;5046911;28;20024;-72
2022/04/19 02:45:30;;;;;;;6.85;2.97;;;;;;;2.58;73.49;94907.91;5064235;28;20086;-72
2022/04/19 02:48:06;;;;;;;5.13;3.40;;;;;;;2.52;74.25;94916.41;5064603;28;20078;-73
2022/04/19 02:50:33;;;;;;;5.57;3.30;;;;;;;2.53;73.85;94907.47;5064136;28;20029;-71
2022/04/19 02:53:04;;;;;;;5.45;2.88;;;;;;;2.50;74.54;94910.41;5064065;28;20475;-73
2022/04/19 02:55:29;;;;;;;5.47;3.20;;;;;;;2.52;73.79;94911.13;5064785;28;20520;-71
2022/04/19 02:57:55;;;;;;;7.32;3.10;;;;;;;2.52;74.17;94916.41;5063543;28;20039;-70
2022/04/19 03:00:21;;;;;;;5.05;3.10;;;;;;;2.55;74.31;94915.28;5064640;28;20103;-70
2022/04/19 03:02:46;;;;;;;4.80;3.00;;;;;;;2.57;74.01;94921.28;5063771;28;20021;-72
2022/04/19 03:05:12;;;;;;;4.90;2.92;;;;;;;2.56;73.96;94922.28;5064591;28;20020;-71
2022/04/19 03:07:37;;;;;;;4.93;3.10;;;;;;;2.57;74.00;94924.78;5064016;28;20024;-74
2022/04/19 03:10:03;;;;;;;5.65;3.60;;;;;;;2.68;72.99;94926.44;5064334;28;20032;-69
2022/04/19 03:12:28;;;;;;;5.47;3.13;;;;;;;2.63;74.09;94933.16;5067788;28;20051;-72
2022/04/19 03:14:55;;;;;;;5.13;2.90;;;;;;;2.66;73.85;94936.31;5067244;28;20024;-69
2022/04/19 03:17:21;;;;;;;5.25;3.03;;;;;;;2.57;74.22;94929.22;5068505;28;20063;-71
2022/04/19 03:19:46;;;;;;;3.97;2.75;;;;;;;2.59;73.89;94928.13;5067163;28;20029;-70
2022/04/19 03:22:11;;;;;;;6.13;3.33;;;;;;;2.58;74.37;94931.72;5050031;28;20035;-71
2022/04/19 03:30:05;;;;;;;4.80;3.03;;;;;;;2.54;74.03;94940.94;5067790;28;20571;-69
2022/04/19 03:32:32;;;;;;;5.28;2.97;;;;;;;2.51;74.47;94941.22;5067152;28;20071;-73
2022/04/19 03:34:58;;;;;;;6.47;2.85;;;;;;;2.52;74.15;94950.81;5067588;28;20086;-72
2022/04/19 03:37:23;;;;;;;4.88;2.88;;;;;;;2.54;74.79;94948.88;5049360;28;20013;-73
2022/04/19 03:39:48;;;;;;;5.40;3.22;;;;;;;2.55;74.28;94947.06;5067920;28;20024;-71
2022/04/19 03:42:14;;;;;;;7.65;3.75;;;;;;;2.58;74.84;94942.31;5067003;28;20024;-71
2022/04/19 03:44:39;;;;;;;5.10;3.10;;;;;;;2.63;75.24;94949.03;5067575;28;20410;-71
2022/04/19 03:47:07;;;;;;;6.40;4.13;;;;;;;2.62;74.77;94949.97;5067176;28;20024;-73
2022/04/19 03:49:34;;;;;;;6.57;4.07;;;;;;;2.65;74.34;94957.66;5066764;28;20507;-74
2022/04/19 03:52:00;;;;;;;4.93;3.47;;;;;;;2.65;74.79;94958.50;5067388;28;20020;-72
2022/04/19 03:54:25;;;;;;;7.25;3.92;;;;;;;2.74;74.83;94959.44;5048961;28;20062;-72
2022/04/19 03:56:51;;;;;;;6.18;3.80;;;;;;;2.82;73.91;94961.44;5067488;28;20086;-72
2022/04/19 03:59:16;;;;;;;5.80;3.72;;;;;;;2.88;74.32;94963.50;5066642;28;20024;-73
2022/04/19 04:01:42;;;;;;;9.05;4.75;;;;;;;2.90;73.73;94961.53;5067364;28;20025;-70
2022/04/19 04:04:07;;;;;;;9.57;4.90;;;;;;;2.89;73.18;94962.53;5066624;28;20033;-74
2022/04/19 04:06:35;;;;;;;6.53;3.95;;;;;;;2.91;73.23;94959.72;5067276;28;20024;-70
2022/04/19 04:09:01;;;;;;;6.35;4.22;;;;;;;2.83;72.91;94971.03;5048991;28;20169;-71
2022/04/19 04:11:26;;;;;;;8.38;5.60;;;;;;;2.85;72.86;94969.09;5048287;28;20031;-74
2022/04/19 04:13:51;;;;;;;6.85;4.65;;;;;;;2.81;73.63;94962.38;5067060;28;20509;-71
2022/04/19 04:16:17;;;;;;;8.43;4.57;;;;;;;2.89;73.71;94974.91;5066217;28;20532;-75
2022/04/19 04:18:42;;;;;;;7.28;4.72;;;;;;;2.91;73.87;94971.16;5048999;28;20029;-73
2022/04/19 04:21:08;;;;;;;7.07;4.00;;;;;;;3.02;72.84;94979.94;5031239;28;20042;-72
2022/04/19 04:23:33;;;;;;;8.32;4.30;;;;;;;2.99;73.05;94978.41;5048591;28;20101;-71
2022/04/19 04:25:59;;;;;;;8.27;4.55;;;;;;;2.99;73.27;94974.91;5066280;28;20506;-71
2022/04/19 04:28:25;;;;;;;8.77;4.88;;;;;;;2.96;73.56;94984.00;5065836;28;20111;-71
2022/04/19 04:30:50;;;;;;;7.50;4.88;;;;;;;3.00;73.01;94980.06;5066657;28;20032;-72
2022/04/19 04:33:16;;;;;;;9.20;5.80;;;;;;;3.05;72.54;94977.84;5031209;28;20436;-72
2022/04/19 04:35:42;;;;;;;8.25;5.15;;;;;;;3.07;72.11;94983.84;5031880;28;20132;-71
2022/04/19 04:38:07;;;;;;;8.10;5.40;;;;;;;3.06;72.04;94981.34;5048034;28;20067;-72
2022/04/19 04:40:32;;;;;;;7.75;5.03;;;;;;;3.03;72.58;94979.78;5048833;28;20035;-71
2022/04/19 04:42:58;;;;;;;9.02;6.22;;;;;;;3.04;73.07;94980.63;5066135;28;20040;-71
2022/04/19 04:45:25;;;;;;;8.40;5.70;;;;;;;3.06;73.44;94986.63;5065772;28;20037;-71
2022/04/19 04:50:34;;;;;;;14.55;7.13;;;;;;;3.18;72.82;94989.94;5050151;28;20039;-70
2022/04/19 04:53:00;;;;;;;14.65;7.45;;;;;;;3.21;73.27;94990.50;5066592;28;20016;-71
2022/04/19 04:55:25;;;;;;;13.43;6.40;;;;;;;3.26;73.69;94989.22;5065514;28;20031;-71
2022/04/19 04:57:56;;;;;;;11.23;6.45;;;;;;;3.33;73.22;94990.34;5066251;28;20089;-71
2022/04/19 05:00:21;;;;;;;11.68;7.47;;;;;;;3.43;73.34;94998.28;5065744;28;20021;-72
2022/04/19 05:02:47;;;;;;;12.93;7.50;;;;;;;3.49;73.27;94994.22;5065502;28;20025;-73
2022/04/19 05:05:12;;;;;;;10.60;6.22;;;;;;;3.57;72.39;94997.81;5066549;28;20035;-69
2022/04/19 05:07:38;;;;;;;10.40;6.25;;;;;;;3.59;71.91;95001.16;5065356;28;20028;-71
2022/04/19 05:10:04;;;;;;;10.98;6.38;;;;;;;3.65;72.50;95002.41;5047755;28;20408;-70
2022/04/19 05:12:30;;;;;;;10.00;5.88;;;;;;;3.64;72.16;95002.53;5030521;28;20021;-71
2022/04/19 05:14:56;;;;;;;12.98;6.18;;;;;;;3.64;71.79;95005.19;5065984;28;20394;-71
2022/04/19 05:17:21;;;;;;;10.65;5.88;;;;;;;3.65;72.45;95005.06;5065126;28;20024;-71
2022/04/19 05:19:46;;;;;;;8.82;5.22;;;;;;;3.63;72.47;95006.19;5047714;28;20423;-70
2022/04/19 05:22:12;;;;;;;10.75;5.68;;;;;;;3.70;72.22;95001.97;5047730;28;20048;-70
2022/04/19 05:24:37;;;;;;;9.95;5.78;;;;;;;3.71;71.73;95012.44;5065052;28;20538;-73
2022/04/19 05:27:03;;;;;;;8.85;5.47;;;;;;;3.75;71.86;95004.19;5065827;28;20091;-69
2022/04/19 05:29:29;;;;;;;10.10;5.22;;;;;;;3.75;71.71;95012.13;5046511;28;20052;-70
2022/04/19 05:31:54;;;;;;;10.57;5.03;;;;;;;3.76;72.07;95004.03;5065525;28;20495;-70
2022/04/19 05:34:19;;;;;;;9.50;5.40;;;;;;;3.81;71.75;95009.75;5064603;28;20024;-71
2022/04/19 05:36:45;;;;;;;12.02;5.93;;;;;;;3.82;71.43;95007.94;5047298;28;20052;-72
2022/04/19 05:39:10;;;;;;;10.43;5.28;;;;;;;3.84;71.47;95008.59;5065122;28;20028;-70
2022/04/19 05:41:39;;;;;;;10.45;5.13;;;;;;;3.87;71.10;95010.97;5064982;28;20078;-71
2022/04/19 05:44:05;;;;;;;8.90;5.22;;;;;;;3.91;70.98;95011.53;5065787;28;20368;-70
2022/04/19 05:46:31;;;;;;;8.63;5.07;;;;;;;3.92;70.87;95013.19;5064451;28;20031;-70
2022/04/19 05:48:56;;;;;;;7.97;5.18;;;;;;;3.95;70.15;95020.84;5065191;28;20169;-70
2022/04/19 05:51:22;;;;;;;8.07;4.80;;;;;;;3.89;70.84;95024.94;5064729;28;20173;-70
2022/04/19 05:53:47;;;;;;;7.97;4.50;;;;;;;3.92;70.08;95023.78;5064979;28;20125;-70
2022/04/19 05:56:13;;;;;;;9.40;5.47;;;;;;;3.89;70.69;95030.25;5064694;28;20454;-70
2022/04/19 05:58:38;;;;;;;8.73;5.45;;;;;;;3.95;70.47;95019.03;5064987;28;20037;-70
2022/04/19 06:01:04;;;;;;;11.18;5.78;;;;;;;3.92;70.48;95023.78;5065145;28;20484;-69
2022/04/19 06:06:14;;;;;;;9.00;5.78;;;;;;;3.88;70.91;95027.72;5050232;28;20119;-70
2022/04/19 06:08:40;;;;;;;9.70;5.68;;;;;;;3.88;71.04;95031.22;5046622;28;20036;-70
2022/04/19 06:11:07;;;;;;;9.82;5.22;;;;;;;3.93;70.84;95022.84;5065039;28;20252;-74
2022/04/19 06:13:33;;;;;;;11.20;5.55;;;;;;;3.98;70.66;95028.53;5046986;28;20025;-71
2022/04/19 06:15:58;;;;;;;10.82;5.22;;;;;;;3.99;70.92;95035.50;5046941;28;20035;-72
2022/04/19 06:18:23;;;;;;;9.55;4.60;;;;;;;3.95;71.12;95032.31;5064913;28;20078;-71
2022/04/19 06:20:53;;;;;;;7.55;4.47;;;;;;;3.93;70.45;95038.75;5064005;28;20032;-72
2022/04/19 06:23:19;;;;;;;6.85;3.75;;;;;;;3.96;70.77;95038.47;5065070;28;20463;-71
2022/04/19 06:25:44;;;;;;;10.23;4.38;;;;;;;3.98;70.46;95031.19;5045922;28;20293;-72
2022/04/19 06:28:09;;;;;;;7.00;3.90;;;;;;;4.07;70.01;95032.97;5047110;28;20067;-72
2022/04/19 06:30:35;;;;;;;7.13;3.92;;;;;;;4.08;70.09;95050.56;5064386;28;20032;-71
2022/04/19 06:33:00;;;;;;;5.78;4.03;;;;;;;4.13;70.37;95046.63;5064637;28;20027;-73
2022/04/19 06:35:26;;;;;;;4.95;3.25;;;;;;;4.18;70.30;95050.53;5046489;28;20036;-70
2022/04/19 06:37:51;;;;;;;5.88;3.65;;;;;;;4.26;70.02;95047.13;5046417;28;20052;-70
2022/04/19 06:40:16;;;;;;;4.50;2.85;;;;;;;4.25;69.00;95050.78;5064808;28;20035;-70
2022/04/19 06:42:43;;;;;;;4.20;2.78;;;;;;;4.21;69.73;95049.38;5063962;28;20064;-71
2022/04/19 06:45:10;;;;;;;5.45;2.70;;;;;;;4.16;70.19;95038.38;5064913;28;20020;-70
2022/04/19 06:47:35;;;;;;;4.72;2.70;;;;;;;4.21;70.76;95046.72;5050536;28;20025;-70
2022/04/19 06:50:02;;;;;;;4.97;2.70;;;;;;;4.23;70.51;95044.75;5033790;28;20456;-73
2022/04/19 06:52:28;;;;;;;5.10;3.00;;;;;;;4.31;70.26;95044.88;5050621;28;20082;-70
2022/04/19 06:54:53;;;;;;;4.07;2.72;;;;;;;4.34;69.72;95049.03;5068707;28;20021;-71
2022/04/19 06:57:19;;;;;;;4.50;2.70;;;;;;;4.39;69.99;95044.13;5050479;28;20086;-71
2022/04/19 06:59:45;;;;;;;5.22;2.47;;;;;;;4.45;69.81;95050.66;5067923;28;20033;-70
2022/04/19 07:02:11;;;;;;;2.90;1.60;;;;;;;4.53;68.57;95045.44;5050343;28;20495;-71
2022/04/19 07:04:36;;;;;;;2.85;1.30;;;;;;;4.66;67.66;95052.22;5067805;28;20100;-71
2022/04/19 07:07:03;;;;;;;1.83;1.00;;;;;;;4.77;67.21;95049.34;5068239;28;20025;-70
2022/04/19 07:09:29;;;;;;;2.17;1.23;;;;;;;4.86;67.24;95052.09;5067715;28;20082;-71
2022/04/19 07:11:54;;;;;;;2.53;1.60;;;;;;;4.88;67.48;95055.44;5068026;28;20032;-72
2022/04/19 07:14:20;;;;;;;3.10;1.75;;;;;;;4.98;67.24;95060.69;5067907;28;20047;-71
2022/04/19 07:16:45;;;;;;;3.15;1.83;;;;;;;4.92;67.10;95059.44;5067902;28;20221;-73
2022/04/19 07:19:11;;;;;;;3.42;1.85;;;;;;;5.01;67.66;95066.53;5050054;28;20039;-72
2022/04/19 07:27:04;;;;;;;5.07;2.42;;;;;;;4.95;68.44;95061.78;5067373;28;20059;-70
2022/04/19 07:29:30;;;;;;;5.53;2.67;;;;;;;5.05;68.37;95061.72;5067890;28;20025;-70
2022/04/19 07:31:56;;;;;;;4.45;2.92;;;;;;;5.24;65.14;95070.56;5067450;28;20029;-72
2022/04/19 07:34:22;;;;;;;4.78;3.13;;;;;;;5.40;64.10;95059.22;5067469;28;20031;-71
2022/04/19 07:36:47;;;;;;;5.53;3.35;;;;;;;5.41;65.15;95066.19;5068000;28;20415;-71
2022/04/19 07:39:13;;;;;;;6.25;3.47;;;;;;;5.48;66.08;95069.09;5066921;28;20035;-70
2022/04/19 07:41:38;;;;;;;5.50;3.75;;;;;;;5.55;66.98;95063.00;5067807;28;20033;-71
2022/04/19 07:44:05;;;;;;;5.03;3.58;;;;;;;5.61;66.73;95063.38;5067031;28;20031;-70
2022/04/19 07:46:31;;;;;;;5.50;3.50;;;;;;;5.75;68.21;95062.81;5049589;28;20032;-70
2022/04/19 07:48:56;;;;;;;4.60;3.08;;;;;;;5.99;65.67;95055.13;5067223;28;20012;-71
2022/04/19 07:51:22;;;;;;;5.50;3.17;;;;;;;6.13;65.76;95057.22;5066808;28;20028;-70
2022/04/19 07:53:47;;;;;;;3.22;2.63;;;;;;;6.45;64.57;95062.03;5033046;28;20423;-70
2022/04/19 07:56:13;;;;;;;4.30;2.58;;;;;;;6.77;61.93;95057.81;5066280;28;20514;-70
2022/04/19 07:58:38;;;;;;;5.70;2.00;;;;;;;6.79;60.86;95059.31;5067331;28;20025;-70
2022/04/19 08:01:04;;;;;;;3.33;2.10;;;;;;;7.07;60.82;95050.19;5048776;28;20040;-71
2022/04/19 08:03:29;;;;;;;2.63;2.03;;;;;;;7.14;60.19;95056.53;5049458;28;20047;-71
2022/04/19 08:05:55;;;;;;;4.03;2.40;;;;;;;7.02;59.45;95048.03;5066852;28;20078;-70
2022/04/19 08:08:21;;;;;;;2.90;1.90;;;;;;;7.21;58.17;95047.84;5066930;28;20039;-70
2022/04/19 08:10:47;;;;;;;3.83;2.30;;;;;;;7.51;58.18;95046.38;5049089;28;20395;-72
2022/04/19 08:13:12;;;;;;;3.08;2.35;;;;;;;7.44;56.55;95045.38;5048442;28;20472;-71
2022/04/19 08:15:38;;;;;;;3.38;2.30;;;;;;;7.35;54.90;95047.19;5067340;28;20471;-73
2022/04/19 08:18:03;;;;;;;4.50;2.25;;;;;;;7.30;53.84;95039.69;5048396;28;20040;-71
2022/04/19 08:20:29;;;;;;;4.13;2.88;;;;;;;7.21;57.44;95047.84;5067073;28;20025;-70
2022/04/19 08:22:54;;;;;;;3.72;2.60;;;;;;;7.30;55.06;95038.88;5048437;28;20418;-72
2022/04/19 08:25:20;;;;;;;5.43;3.20;;;;;;;7.67;55.46;95039.38;5066613;28;20036;-73
2022/04/19 08:27:48;;;;;;;4.63;3.35;;;;;;;7.70;57.66;95038.19;5066553;28;20082;-71
2022/04/19 08:30:14;;;;;;;5.68;3.30;;;;;;;8.12;58.11;95039.78;5066460;28;20029;-70
2022/04/19 08:32:40;;;;;;;4.38;3.00;;;;;;;8.29;55.59;95037.03;5066620;28;20111;-72
2022/04/19 08:35:06;;;;;;;3.92;2.70;;;;;;;8.47;55.43;95036.81;5066279;28;20028;-70
2022/04/19 08:37:32;;;;;;;4.65;2.80;;;;;;;8.82;55.37;95035.69;5066328;28;20362;-70
2022/04/19 08:39:57;;;;;;;4.93;3.00;;;;;;;8.98;54.84;95038.25;5048043;28;20066;-70
2022/04/19 08:42:23;;;;;;;4.22;2.80;;;;;;;8.80;50.45;95032.34;5031746;28;20056;-70
2022/04/19 08:44:48;;;;;;;5.05;3.63;;;;;;;8.57;51.73;95038.47;5047955;28;20036;-70
2022/04/19 08:47:14;;;;;;;5.30;3.78;;;;;;;8.39;53.33;95037.69;5066463;28;20475;-70
2022/04/19 08:49:41;;;;;;;6.15;3.85;;;;;;;8.37;52.94;95028.16;5065696;28;20059;-70
2022/04/19 08:52:06;;;;;;;4.47;3.55;;;;;;;8.24;54.12;95029.56;5047975;28;20036;-70
2022/04/19 08:57:32;;;;;;;4.80;3.35;;;;;;;8.14;53.81;95023.59;5066268;28;20047;-71
2022/04/19 08:59:58;;;;;;;6.28;3.38;;;;;;;8.08;51.94;95029.59;5066179;28;20025;-71
2022/04/19 09:02:27;;;;;;;5.15;3.55;;;;;;;7.88;53.57;95024.66;5065505;28;20036;-70
2022/04/19 09:04:53;;;;;;;4.97;3.42;;;;;;;7.89;54.19;95026.31;5047969;28;20025;-70
2022/04/19 09:07:20;;;;;;;5.22;3.88;;;;;;;8.02;53.73;95023.94;5048309;28;20038;-69
2022/04/19 09:10:02;;;;;;;5.82;4.10;;;;;;;8.53;52.12;95022.75;5064519;28;20029;-70
2022/04/19 09:12:27;;;;;;;5.72;3.70;;;;;;;8.72;51.28;95018.00;5048139;28;20487;-70
2022/04/19 09:14:58;;;;;;;5.95;4.28;;;;;;;8.88;49.44;95013.59;5065407;28;20056;-70
2022/04/19 09:17:36;;;;;;;4.15;3.50;;;;;;;8.94;48.46;95020.91;5047990;28;20020;-70
2022/04/19 09:20:09;;;;;;;5.68;3.85;;;;;;;9.15;51.40;95014.91;5065348;28;20564;-72
2022/04/19 09:22:36;;;;;;;6.60;4.22;;;;;;;8.91;48.68;95010.56;5046410;28;20028;-70
2022/04/19 09:25:24;;;;;;;5.55;4.43;;;;;;;8.75;49.06;95011.50;5047763;28;20107;-70
2022/04/19 09:27:50;;;;;;;6.75;4.38;;;;;;;8.68;49.90;95016.69;5064947;28;20094;-70
2022/04/19 09:30:25;;;;;;;8.07;4.35;;;;;;;8.71;49.87;95008.31;5065634;28;20024;-70
2022/04/19 09:33:04;;;;;;;8.82;5.05;;;;;;;8.91;53.32;95007.88;5065526;28;20033;-71
2022/04/19 09:35:55;;;;;;;7.03;4.80;;;;;;;9.20;49.18;95006.34;5064694;28;20078;-72
2022/04/19 09:38:36;;;;;;;8.77;5.18;;;;;;;9.31;50.30;95006.91;5048167;28;20024;-72
2022/04/19 09:41:02;;;;;;;7.93;4.85;;;;;;;9.56;48.35;95006.72;5065311;28;20043;-69
2022/04/19 09:43:28;;;;;;;8.80;5.38;;;;;;;9.65;49.47;95008.31;5047501;28;20025;-71
2022/04/19 09:45:56;;;;;;;6.72;5.15;;;;;;;9.73;48.78;95005.56;5064239;28;20048;-71
2022/04/19 09:48:37;;;;;;;6.70;5.15;;;;;;;9.55;46.60;94999.69;5047017;28;20025;-70
2022/04/19 09:51:12;;;;;;;6.28;4.47;;;;;;;9.75;46.11;94990.13;5047356;28;20487;-70
2022/04/19 09:53:38;;;;;;;5.47;4.10;;;;;;;9.59;46.91;94987.63;5046782;28;20028;-69
2022/04/19 09:56:10;;;;;;;7.15;4.47;;;;;;;9.45;47.78;94992.75;5065402;28;20032;-72
2022/04/19 09:58:39;;;;;;;6.18;4.40;;;;;;;9.35;47.92;94989.50;5047288;28;20124;-71
2022/04/19 10:01:04;;;;;;;9.02;5.70;;;;;;;9.67;48.64;94997.41;5064906;28;20017;-71
2022/04/19 10:08:58;;;;;;;9.05;4.55;;;;;;;9.87;48.83;94982.47;5035705;28;20066;-72
2022/04/19 10:11:25;;;;;;;6.03;3.92;;;;;;;9.84;44.44;94974.81;5046405;28;20052;-70
2022/04/19 10:13:51;;;;;;;4.78;3.53;;;;;;;9.82;40.98;94978.72;5064691;28;20085;-72
2022/04/19 10:16:16;;;;;;;5.30;3.78;;;;;;;9.80;43.30;94984.22;5046842;28;20025;-70
2022/04/19 10:18:44;;;;;;;7.68;3.92;;;;;;;9.80;44.39;94978.84;5064014;28;20025;-70
2022/04/19 10:21:11;;;;;;;4.85;3.70;;;;;;;9.98;44.45;94970.47;5053007;28;20081;-69
2022/04/19 10:23:43;;;;;;;4.07;2.70;;;;;;;10.08;38.56;94967.50;5070745;28;20031;-70
2022/04/19 10:26:20;;;;;;;4.75;2.90;;;;;;;10.08;37.81;94969.34;5071453;28;20114;-71
2022/04/19 10:28:47;;;;;;;6.03;2.70;;;;;;;10.10;37.33;94961.97;5053060;28;20068;-70
2022/04/19 10:31:12;;;;;;;4.82;2.55;;;;;;;10.07;35.61;94965.03;5071455;28;20103;-72
2022/04/19 10:33:54;;;;;;;6.80;3.05;;;;;;;9.83;35.63;94966.97;5053700;28;20513;-73
2022/04/19 10:36:38;;;;;;;3.75;2.58;;;;;;;9.68;37.88;94970.47;5037559;28;20079;-73
2022/04/19 10:39:13;;;;;;;3.83;2.40;;;;;;;9.74;36.83;94950.97;5071324;28;20089;-71
2022/04/19 10:42:00;;;;;;;3.15;2.33;;;;;;;9.77;36.66;94957.81;5071203;28;20031;-70
2022/04/19 10:44:34;;;;;;;3.60;2.42;;;;;;;9.81;36.95;94947.56;5053315;28;20028;-71
2022/04/19 10:47:07;;;;;;;6.20;3.08;;;;;;;9.71;37.78;94946.00;5071585;28;20035;-72
2022/04/19 10:50:01;;;;;;;3.10;2.30;;;;;;;9.61;36.70;94953.44;5070874;28;20028;-74
2022/04/19 10:52:36;;;;;;;3.58;2.40;;;;;;;9.49;34.85;94963.78;5071710;28;20029;-70
2022/04/19 10:55:08;;;;;;;4.07;2.50;;;;;;;9.58;35.02;94945.78;5070626;28;20033;-71
2022/04/19 11:00:42;;;;;;;4.80;2.63;;;;;;;9.88;36.00;94943.16;5071522;28;20039;-71
2022/04/19 11:03:11;;;;;;;3.15;2.08;;;;;;;10.06;37.74;94949.97;5070454;28;20035;-68
2022/04/19 11:05:45;;;;;;;3.70;2.42;;;;;;;9.93;35.18;94947.94;5071179;28;20529;-73
2022/04/19 11:08:26;;;;;;;4.13;2.53;;;;;;;10.14;33.92;94948.00;5070978;28;20029;-69
2022/04/19 11:11:06;;;;;;;4.63;2.40;;;;;;;10.11;34.79;94948.38;5070386;28;20040;-71
2022/04/19 11:13:35;;;;;;;4.18;2.10;;;;;;;10.06;34.91;94944.63;5071128;28;20109;-71
2022/04/19 11:16:01;;;;;;;5.30;2.53;;;;;;;10.14;33.76;94953.38;5035943;28;20430;-72
2022/04/19 11:18:33;;;;;;;3.70;2.65;;;;;;;9.91;32.74;94948.13;5071173;28;20522;-69
2022/04/19 11:21:03;;;;;;;3.67;2.40;;;;;;;9.93;33.19;94948.75;5070606;28;20029;-70
2022/04/19 11:23:29;;;;;;;3.40;2.28;;;;;;;10.06;31.28;94940.06;5070595;28;20051;-73
2022/04/19 11:25:55;;;;;;;3.38;2.30;;;;;;;10.32;34.03;94937.91;5071297;28;20054;-72
2022/04/19 11:28:31;;;;;;;9.45;2.42;;;;;;;10.57;34.37;94927.72;5070289;28;20024;-70
2022/04/19 11:30:56;;;;;;;6.68;2.15;;;;;;;10.71;31.59;94931.38;5053855;28;20112;-71
2022/04/19 11:33:26;;;;;;;3.17;2.08;;;;;;;10.73;31.84;94933.88;5066511;28;20100;-70
2022/04/19 11:36:05;;;;;;;3.65;2.42;;;;;;;10.66;31.41;94933.78;5067906;28;20099;-71
2022/04/19 11:38:33;;;;;;;4.18;2.47;;;;;;;10.48;35.71;94928.84;5067728;28;20081;-71
2022/04/19 11:46:46;;;;;;;4.32;2.58;;;;;;;10.07;38.34;94946.28;5067280;28;20525;-70
2022/04/19 11:49:27;;;;;;;3.83;2.47;;;;;;;9.81;35.70;94952.91;5050443;28;20424;-70
2022/04/19 11:51:54;;;;;;;3.22;2.22;;;;;;;9.54;35.07;94945.34;5067531;28;20469;-69
2022/04/19 11:54:27;;;;;;;4.53;2.15;;;;;;;9.45;35.79;94955.28;5066584;28;20032;-71
2022/04/19 11:56:57;;;;;;;3.40;2.05;;;;;;;9.57;34.88;94954.84;5067566;28;20029;-71
2022/04/19 11:59:32;;;;;;;6.35;2.50;;;;;;;9.66;34.95;94952.94;5048840;28;20029;-70
2022/04/19 12:01:58;;;;;;;4.80;2.08;;;;;;;9.74;34.08;94950.13;5067245;28;20086;-71
2022/04/19 12:04:23;;;;;;;7.10;2.67;;;;;;;9.77;34.58;94953.28;5049111;28;20024;-70
2022/04/19 12:06:53;;;;;;;3.85;2.10;;;;;;;9.68;34.58;94954.41;5066421;28;20024;-69
2022/04/19 12:09:18;;;;;;;3.38;2.30;;;;;;;9.58;34.43;94954.66;5067137;28;20060;-70
2022/04/19 12:11:45;;;;;;;3.42;2.38;;;;;;;9.63;34.96;94948.75;5066674;28;20097;-70
2022/04/19 12:14:21;;;;;;;4.97;2.15;;;;;;;9.87;33.86;94946.81;5032909;28;20509;-70
2022/04/19 12:16:54;;;;;;;4.55;2.03;;;;;;;10.09;35.30;94949.59;5033402;28;20111;-71
2022/04/19 12:19:33;;;;;;;3.20;2.25;;;;;;;10.31;33.67;94922.84;5066555;28;20028;-70